Time;durP1;ratioP1;P1;durP2;ratioP2;P2;SDS_P1;SDS_P2;PMS_P1;PMS_P2;Temp;Humidity;BMP_temperature;BMP_pressure;BME280_temperature;BME280_humidity;BME280_pressure;Samples;Min_cycle;Max_cycle;Signal;HPM_P1;HPM_P2
2021/03/04 00:01:20;;;;;;;47.53;32.00;;;4.90;99.90;;;;;;4993947;28;20754;-64
2021/03/04 00:03:48;;;;;;;41.30;29.90;;;4.90;99.90;;;;;;5022531;28;21253;-63
2021/03/04 00:06:18;;;;;;;48.03;32.60;;;4.90;99.90;;;;;;5011336;28;20599;-61
2021/03/04 00:08:45;;;;;;;45.87;31.03;;;4.90;99.90;;;;;;5019001;28;20675;-62
2021/03/04 00:11:11;;;;;;;48.67;33.23;;;5.00;99.90;;;;;;4995147;28;20743;-62
2021/03/04 00:13:39;;;;;;;54.50;35.20;;;5.00;99.90;;;;;;5013701;28;20618;-62
2021/03/04 00:16:10;;;;;;;52.03;33.43;;;4.90;99.90;;;;;;4998563;28;20192;-62
2021/03/04 00:18:38;;;;;;;56.53;35.60;;;4.90;99.90;;;;;;5018180;28;21291;-64
2021/03/04 00:21:03;;;;;;;52.50;36.30;;;4.90;99.90;;;;;;5012538;28;20667;-64
2021/03/04 00:23:31;;;;;;;54.53;37.13;;;4.90;99.90;;;;;;5000492;28;20624;-64
2021/03/04 00:25:59;;;;;;;54.60;35.50;;;4.80;99.90;;;;;;4995955;28;20204;-64
2021/03/04 00:28:42;;;;;;;49.83;34.47;;;4.90;99.90;;;;;;5024660;28;20647;-62
2021/03/04 00:31:10;;;;;;;50.13;34.03;;;4.70;99.90;;;;;;5029714;28;20660;-62
2021/03/04 00:33:38;;;;;;;49.53;34.43;;;4.60;99.90;;;;;;5000737;28;20630;-64
2021/03/04 00:36:06;;;;;;;51.70;34.80;;;4.60;99.90;;;;;;5012199;28;20934;-64
2021/03/04 00:38:37;;;;;;;52.27;35.40;;;4.60;99.90;;;;;;5013043;28;20646;-64
2021/03/04 00:41:08;;;;;;;47.40;32.87;;;4.60;99.90;;;;;;4998999;28;20759;-64
2021/03/04 00:43:43;;;;;;;46.30;31.67;;;4.60;99.90;;;;;;5000839;28;21170;-64
2021/03/04 00:46:16;;;;;;;43.00;27.93;;;4.40;99.90;;;;;;5015001;28;20610;-61
2021/03/04 00:48:46;;;;;;;36.97;25.90;;;4.20;99.90;;;;;;5012397;28;21287;-60
2021/03/04 00:51:11;;;;;;;38.63;25.67;;;4.20;99.90;;;;;;4999410;28;20655;-64
2021/03/04 00:53:37;;;;;;;39.13;24.80;;;4.20;99.90;;;;;;4999247;28;20630;-64
2021/03/04 00:56:08;;;;;;;31.63;22.17;;;4.10;99.90;;;;;;4997937;28;20226;-64
2021/03/04 00:58:33;;;;;;;36.57;22.17;;;4.10;99.90;;;;;;5016506;28;21643;-63
2021/03/04 01:01:08;;;;;;;33.23;22.90;;;4.10;99.90;;;;;;5014593;28;20651;-62
2021/03/04 01:03:41;;;;;;;33.43;22.10;;;4.00;99.90;;;;;;5005409;28;20196;-64
2021/03/04 01:06:17;;;;;;;28.90;20.70;;;3.90;99.90;;;;;;5013987;28;21034;-63
2021/03/04 01:08:47;;;;;;;34.77;21.83;;;4.00;99.90;;;;;;5003974;28;20655;-64
2021/03/04 01:11:27;;;;;;;29.07;20.17;;;3.90;99.90;;;;;;5005084;28;20682;-63
2021/03/04 01:13:52;;;;;;;26.73;19.30;;;3.90;99.90;;;;;;5001570;28;20639;-64
2021/03/04 01:16:21;;;;;;;27.60;18.73;;;3.80;99.90;;;;;;5016401;28;21999;-64
2021/03/04 01:18:57;;;;;;;29.20;19.67;;;3.90;99.90;;;;;;5021889;28;20209;-63
2021/03/04 01:21:27;;;;;;;25.60;18.60;;;4.00;99.90;;;;;;5005551;28;20745;-63
2021/03/04 01:24:00;;;;;;;23.13;16.10;;;4.00;99.90;;;;;;4995652;28;21064;-63
2021/03/04 01:26:28;;;;;;;24.97;15.40;;;4.00;99.90;;;;;;5033875;28;20696;-64
2021/03/04 01:28:53;;;;;;;19.70;14.73;;;3.90;99.90;;;;;;5028902;28;20651;-63
2021/03/04 01:31:34;;;;;;;;;;;;;;;;;;;;;
2021/03/04 01:34:14;;;;;;;18.97;12.63;;;3.90;99.90;;;;;;5021791;28;20181;-64
2021/03/04 01:36:44;;;;;;;20.67;13.83;;;3.70;99.90;;;;;;5022744;28;20583;-61
2021/03/04 01:39:12;;;;;;;17.33;12.40;;;3.60;99.90;;;;;;5001523;28;20701;-64
2021/03/04 01:41:50;;;;;;;18.80;11.70;;;3.50;99.90;;;;;;5027054;23;21072;-65
2021/03/04 01:44:15;;;;;;;15.90;10.83;;;3.60;99.90;;;;;;5001269;28;20769;-66
2021/03/04 01:47:01;;;;;;;17.30;11.03;;;3.60;99.90;;;;;;4985246;28;20654;-67
2021/03/04 01:49:29;;;;;;;13.90;10.13;;;3.60;99.90;;;;;;5003085;28;20213;-66
2021/03/04 01:52:18;;;;;;;;;;;;;;;;;;;;;
2021/03/04 01:54:46;;;;;;;13.03;9.30;;;3.70;99.90;;;;;;4996222;28;20572;-67
2021/03/04 01:57:24;;;;;;;13.87;10.03;;;3.80;99.90;;;;;;4994570;28;20648;-66
2021/03/04 01:59:52;;;;;;;13.50;10.20;;;3.80;99.90;;;;;;4980312;28;20632;-66
2021/03/04 02:02:27;;;;;;;15.17;10.20;;;3.90;99.90;;;;;;4979527;28;21218;-65
2021/03/04 02:05:08;;;;;;;16.00;9.90;;;3.90;99.90;;;;;;4998138;28;20612;-67
2021/03/04 02:08:02;;;;;;;12.83;9.30;;;3.90;99.90;;;;;;4996389;28;20665;-66
2021/03/04 02:10:45;;;;;;;13.37;8.77;;;3.90;99.90;;;;;;5000338;28;20640;-65
2021/03/04 02:13:23;;;;;;;12.97;9.47;;;3.80;99.90;;;;;;4983577;28;20694;-67
2021/03/04 02:17:03;;;;;;;13.70;9.97;;;3.80;99.90;;;;;;4976877;28;20621;-65
2021/03/04 02:19:52;;;;;;;13.70;8.87;;;3.90;99.90;;;;;;4920244;28;20626;-66
2021/03/04 02:22:51;;;;;;;16.17;10.17;;;3.80;99.90;;;;;;4937680;28;20835;-66
2021/03/04 02:25:45;;;;;;;15.23;9.50;;;3.70;99.90;;;;;;4918764;28;20630;-66
2021/03/04 02:28:33;;;;;;;14.43;9.60;;;3.60;99.90;;;;;;4938641;28;20682;-65
2021/03/04 02:31:11;;;;;;;11.97;8.20;;;3.60;99.90;;;;;;4938025;28;20654;-66
2021/03/04 02:33:44;;;;;;;10.93;7.53;;;3.60;99.90;;;;;;4934409;28;20631;-66
2021/03/04 02:36:10;;;;;;;10.03;7.70;;;3.70;99.90;;;;;;4937402;28;20614;-66
2021/03/04 02:38:39;;;;;;;15.07;7.97;;;3.80;99.90;;;;;;4935122;28;20653;-67
2021/03/04 02:41:10;;;;;;;10.20;7.93;;;3.90;99.90;;;;;;4920878;28;20854;-66
2021/03/04 02:43:36;;;;;;;9.53;7.03;;;3.90;99.90;;;;;;4946629;28;21022;-66
2021/03/04 02:46:08;;;;;;;9.80;6.80;;;3.80;99.90;;;;;;4980496;28;20696;-65
2021/03/04 02:48:37;;;;;;;11.00;6.70;;;3.80;99.90;;;;;;4980392;28;20762;-66
2021/03/04 02:51:17;;;;;;;11.37;8.07;;;3.90;99.90;;;;;;5002197;28;20655;-64
2021/03/04 02:53:45;;;;;;;9.40;6.50;;;3.90;99.90;;;;;;4979408;28;20615;-68
2021/03/04 02:56:22;;;;;;;9.30;7.00;;;4.00;99.90;;;;;;4988818;28;20819;-65
2021/03/04 02:58:52;;;;;;;9.93;7.10;;;3.90;99.90;;;;;;4997854;28;20615;-66
2021/03/04 03:01:22;;;;;;;8.93;6.67;;;3.90;99.90;;;;;;5000983;28;20646;-66
2021/03/04 03:03:55;;;;;;;7.90;6.40;;;4.00;99.90;;;;;;4981749;28;21080;-67
2021/03/04 03:06:30;;;;;;;7.73;5.70;;;4.00;99.90;;;;;;4999601;28;20627;-67
2021/03/04 03:08:59;;;;;;;7.73;5.33;;;4.00;99.90;;;;;;4978214;28;20660;-65
2021/03/04 03:11:41;;;;;;;7.70;5.73;;;4.00;99.90;;;;;;4982336;28;20652;-68
2021/03/04 03:14:14;;;;;;;7.10;5.47;;;3.90;99.90;;;;;;4999488;28;20662;-66
2021/03/04 03:16:47;;;;;;;5.93;4.73;;;3.90;99.90;;;;;;4997495;28;21152;-65
2021/03/04 03:19:19;;;;;;;7.63;6.07;;;3.80;99.90;;;;;;4978796;28;21073;-67
2021/03/04 03:21:44;;;;;;;8.47;5.70;;;3.90;99.90;;;;;;4976965;28;20656;-67
2021/03/04 03:24:15;;;;;;;8.97;6.17;;;4.00;99.90;;;;;;4985653;28;21241;-65
2021/03/04 03:26:58;;;;;;;7.27;5.97;;;4.00;99.90;;;;;;4991096;28;20189;-66
2021/03/04 03:29:26;;;;;;;6.80;5.50;;;4.00;99.90;;;;;;4978980;28;20683;-67
2021/03/04 03:31:56;;;;;;;7.87;5.20;;;4.10;99.90;;;;;;4985812;28;20735;-66
2021/03/04 03:34:22;;;;;;;8.30;6.17;;;4.10;99.90;;;;;;4991982;28;20617;-67
2021/03/04 03:36:57;;;;;;;7.33;5.90;;;4.20;99.90;;;;;;4978594;28;21301;-65
2021/03/04 03:39:30;;;;;;;6.67;5.70;;;4.20;99.90;;;;;;5000922;28;20191;-67
2021/03/04 03:42:08;;;;;;;11.73;5.93;;;4.30;99.90;;;;;;4996312;28;20742;-65
2021/03/04 03:45:03;;;;;;;6.03;5.27;;;4.30;99.90;;;;;;4994265;28;20637;-67
2021/03/04 03:47:44;;;;;;;7.90;5.33;;;4.30;99.90;;;;;;4983061;28;20724;-64
2021/03/04 03:50:19;;;;;;;5.43;4.00;;;4.40;99.90;;;;;;4990295;28;20735;-68
2021/03/04 03:52:50;;;;;;;5.70;4.63;;;4.30;99.90;;;;;;5000022;28;20592;-68
2021/03/04 03:55:24;;;;;;;6.00;4.53;;;4.50;99.90;;;;;;5003197;28;21166;-68
2021/03/04 03:57:58;;;;;;;5.80;4.27;;;4.40;99.90;;;;;;4999983;28;21244;-68
2021/03/04 04:00:26;;;;;;;7.30;5.00;;;4.30;99.90;;;;;;4998281;28;20682;-69
2021/03/04 04:03:06;;;;;;;5.60;4.47;;;4.30;99.90;;;;;;5021430;28;20670;-69
2021/03/04 04:05:32;;;;;;;6.00;5.20;;;4.30;99.90;;;;;;5001620;28;22386;-68
2021/03/04 04:08:03;;;;;;;5.13;4.50;;;4.30;99.90;;;;;;4994901;28;20658;-68
2021/03/04 04:10:45;;;;;;;7.17;5.10;;;4.40;99.90;;;;;;4980769;28;20691;-68
2021/03/04 04:13:41;;;;;;;6.10;4.80;;;4.40;99.90;;;;;;4994805;28;20694;-69
2021/03/04 04:16:10;;;;;;;5.00;4.50;;;4.40;99.90;;;;;;4994256;28;21025;-68
2021/03/04 04:18:46;;;;;;;4.93;4.40;;;4.50;99.90;;;;;;4985126;28;20762;-69
2021/03/04 04:21:15;;;;;;;6.70;4.57;;;4.50;99.90;;;;;;4993874;28;21444;-68
2021/03/04 04:23:47;;;;;;;6.63;4.67;;;4.50;99.90;;;;;;4973282;28;20659;-68
2021/03/04 04:26:22;;;;;;;6.60;5.00;;;4.50;99.90;;;;;;4973999;28;20759;-68
2021/03/04 04:28:50;;;;;;;5.93;4.57;;;4.60;99.90;;;;;;4995029;28;21050;-68
2021/03/04 04:31:21;;;;;;;4.67;4.17;;;4.60;99.90;;;;;;4993349;28;20647;-68
2021/03/04 04:33:49;;;;;;;5.63;4.37;;;4.50;99.90;;;;;;4994810;28;20741;-68
2021/03/04 04:36:14;;;;;;;6.20;4.30;;;4.50;99.90;;;;;;4978281;28;20624;-68
2021/03/04 04:38:47;;;;;;;5.17;4.67;;;4.50;99.90;;;;;;4989089;28;20644;-69
2021/03/04 04:41:26;;;;;;;6.97;5.13;;;4.60;99.90;;;;;;4978268;28;20229;-69
2021/03/04 04:43:57;;;;;;;7.07;5.20;;;4.60;99.90;;;;;;4976539;28;20989;-69
2021/03/04 04:46:26;;;;;;;7.33;5.00;;;4.60;99.90;;;;;;4974307;28;20624;-68
2021/03/04 04:48:59;;;;;;;6.00;4.80;;;4.70;99.90;;;;;;4996236;28;20651;-69
2021/03/04 04:51:29;;;;;;;5.60;5.03;;;4.70;99.90;;;;;;4980563;28;20664;-68
2021/03/04 04:53:56;;;;;;;6.63;5.53;;;4.70;99.90;;;;;;4977322;28;21035;-68
2021/03/04 04:56:22;;;;;;;6.57;5.23;;;4.70;99.90;;;;;;4992751;28;20631;-68
2021/03/04 04:58:49;;;;;;;7.20;5.00;;;4.70;99.90;;;;;;4976012;28;21234;-68
2021/03/04 05:01:18;;;;;;;8.27;5.30;;;4.70;99.90;;;;;;4972498;28;20240;-68
2021/03/04 05:03:45;;;;;;;5.67;5.07;;;4.80;99.90;;;;;;4980363;28;20752;-68
2021/03/04 05:06:13;;;;;;;5.53;4.87;;;4.70;99.90;;;;;;4986661;28;20651;-69
2021/03/04 05:08:44;;;;;;;6.37;4.57;;;4.90;99.90;;;;;;4976444;28;20719;-68
2021/03/04 05:11:12;;;;;;;5.73;5.10;;;4.90;99.90;;;;;;4992737;28;20806;-69
2021/03/04 05:13:47;;;;;;;6.13;4.30;;;4.80;99.90;;;;;;4975804;28;20659;-68
2021/03/04 05:16:17;;;;;;;8.97;5.80;;;4.70;99.90;;;;;;4994169;28;20632;-68
2021/03/04 05:18:45;;;;;;;7.10;5.37;;;4.70;99.90;;;;;;4976703;28;20762;-68
2021/03/04 05:21:13;;;;;;;7.63;5.43;;;4.70;99.90;;;;;;4982548;28;20707;-68
2021/03/04 05:23:42;;;;;;;6.03;4.80;;;4.70;99.90;;;;;;4996889;28;20608;-68
2021/03/04 05:26:10;;;;;;;6.10;5.50;;;4.70;99.90;;;;;;4973501;28;21041;-68
2021/03/04 05:28:56;;;;;;;5.87;5.37;;;4.80;99.90;;;;;;4980027;28;20540;-68
2021/03/04 05:31:27;;;;;;;7.63;4.93;;;4.80;99.90;;;;;;4993631;28;21014;-68
2021/03/04 05:34:01;;;;;;;6.67;5.30;;;4.80;99.90;;;;;;4956994;28;20633;-68
2021/03/04 05:36:27;;;;;;;5.30;4.80;;;4.70;99.90;;;;;;4987295;28;20981;-68
2021/03/04 05:39:01;;;;;;;4.60;4.20;;;4.60;99.90;;;;;;4990871;28;20628;-68
2021/03/04 05:42:00;;;;;;;4.97;4.37;;;4.60;99.90;;;;;;4976299;28;20224;-69
2021/03/04 05:44:29;;;;;;;5.13;4.30;;;4.60;99.90;;;;;;4997546;28;20749;-69
2021/03/04 05:46:55;;;;;;;7.97;4.30;;;4.50;99.90;;;;;;4980877;28;20639;-68
2021/03/04 05:49:23;;;;;;;4.77;4.23;;;4.60;99.90;;;;;;4991538;28;20660;-68
2021/03/04 05:51:56;;;;;;;5.97;4.63;;;4.50;99.90;;;;;;4998238;28;20789;-68
2021/03/04 05:54:45;;;;;;;;;;;;;;;;;;;;;
2021/03/04 05:57:11;;;;;;;4.77;4.27;;;4.50;99.90;;;;;;5003490;28;20623;-68
2021/03/04 05:59:42;;;;;;;6.90;4.10;;;4.50;99.90;;;;;;4967346;28;20730;-68
2021/03/04 06:02:19;;;;;;;;;;;;;;;;;;;;;
2021/03/04 06:04:50;;;;;;;6.03;4.60;;;4.50;99.90;;;;;;5000626;28;21360;-68
2021/03/04 06:07:16;;;;;;;4.90;4.40;;;4.50;99.90;;;;;;4996950;28;21142;-69
2021/03/04 06:09:44;;;;;;;4.63;4.10;;;4.60;99.90;;;;;;4990508;28;20714;-68
2021/03/04 06:12:45;;;;;;;5.83;4.60;;;4.70;99.90;;;;;;4980071;28;20232;-69
2021/03/04 06:15:11;;;;;;;6.03;4.30;;;4.70;99.90;;;;;;4973332;28;21923;-68
2021/03/04 06:17:51;;;;;;;4.87;4.20;;;4.70;99.90;;;;;;4989746;28;20624;-69
2021/03/04 06:20:46;;;;;;;7.03;4.20;;;4.80;99.90;;;;;;4982278;28;20625;-67
2021/03/04 06:23:17;;;;;;;6.20;4.67;;;4.80;99.90;;;;;;4986762;28;21074;-68
2021/03/04 06:25:47;;;;;;;5.20;4.17;;;4.80;99.90;;;;;;4984296;28;20673;-68
2021/03/04 06:28:13;;;;;;;5.37;4.50;;;4.80;99.90;;;;;;4968388;28;20711;-68
2021/03/04 06:30:49;;;;;;;4.30;3.90;;;4.80;99.90;;;;;;4983289;28;20648;-68
2021/03/04 06:33:17;;;;;;;4.70;4.20;;;4.80;99.90;;;;;;4984523;28;20216;-69
2021/03/04 06:35:46;;;;;;;5.73;4.60;;;4.80;99.90;;;;;;4969620;28;20853;-68
2021/03/04 06:38:25;;;;;;;7.77;4.33;;;4.70;99.90;;;;;;4978179;28;20625;-68
2021/03/04 06:40:54;;;;;;;5.30;3.83;;;4.70;99.90;;;;;;5020054;28;20690;-68
2021/03/04 06:43:30;;;;;;;4.07;3.77;;;4.70;99.90;;;;;;4996489;28;20678;-68
2021/03/04 06:46:10;;;;;;;4.10;3.70;;;4.80;99.90;;;;;;4989495;28;20620;-68
2021/03/04 06:48:36;;;;;;;4.40;4.00;;;4.90;99.90;;;;;;5002783;28;20682;-69
2021/03/04 06:51:23;;;;;;;5.50;4.20;;;5.00;99.90;;;;;;4992121;28;21179;-68
2021/03/04 06:53:55;;;;;;;5.37;4.37;;;5.00;99.90;;;;;;5005448;28;20682;-68
2021/03/04 06:56:32;;;;;;;5.30;3.90;;;4.90;99.90;;;;;;4983686;28;20636;-68
2021/03/04 06:59:09;;;;;;;4.07;3.60;;;5.10;99.90;;;;;;4979084;28;20727;-68
2021/03/04 07:01:42;;;;;;;5.87;4.30;;;5.10;99.90;;;;;;4985853;28;20656;-68
2021/03/04 07:04:22;;;;;;;4.90;3.83;;;5.10;99.90;;;;;;4973374;28;21057;-71
2021/03/04 07:06:48;;;;;;;4.73;3.90;;;5.20;99.90;;;;;;5004346;28;20600;-68
2021/03/04 07:09:14;;;;;;;4.63;3.83;;;5.20;99.90;;;;;;4976118;28;20787;-68
2021/03/04 07:11:45;;;;;;;4.30;3.90;;;5.20;99.90;;;;;;4976074;28;21234;-71
2021/03/04 07:14:11;;;;;;;4.97;3.87;;;5.20;99.90;;;;;;4967425;28;20620;-64
2021/03/04 07:16:43;;;;;;;3.90;3.47;;;5.20;99.90;;;;;;4962991;28;21055;-66
2021/03/04 07:19:11;;;;;;;5.97;3.33;;;5.20;99.90;;;;;;4978719;28;20682;-66
2021/03/04 07:21:43;;;;;;;4.73;3.60;;;5.20;99.90;;;;;;4986436;28;20694;-66
2021/03/04 07:24:09;;;;;;;4.47;4.03;;;5.30;99.90;;;;;;4986258;28;20628;-66
2021/03/04 07:26:39;;;;;;;4.90;3.60;;;5.40;99.90;;;;;;4980555;28;20718;-66
2021/03/04 07:29:06;;;;;;;4.73;3.70;;;5.50;99.90;;;;;;4980937;28;20976;-66
2021/03/04 07:31:57;;;;;;;5.60;3.77;;;5.60;99.90;;;;;;4973162;28;20673;-65
2021/03/04 07:34:23;;;;;;;8.47;4.57;;;5.50;99.90;;;;;;4970365;28;21139;-65
2021/03/04 07:36:50;;;;;;;5.00;4.17;;;5.50;99.90;;;;;;4987862;28;20621;-66
2021/03/04 07:39:27;;;;;;;6.60;4.10;;;5.50;99.90;;;;;;4970593;28;20229;-65
2021/03/04 07:41:55;;;;;;;4.30;3.90;;;5.50;99.90;;;;;;4980288;28;20895;-69
2021/03/04 07:44:29;;;;;;;5.67;3.77;;;5.50;99.90;;;;;;4972246;28;20624;-66
2021/03/04 07:46:58;;;;;;;7.73;4.20;;;5.50;99.90;;;;;;4979364;28;20651;-67
2021/03/04 07:49:39;;;;;;;5.03;3.70;;;5.50;99.90;;;;;;4997990;28;20779;-66
2021/03/04 07:52:12;;;;;;;4.27;3.87;;;5.60;99.90;;;;;;4980428;28;20666;-67
2021/03/04 07:54:39;;;;;;;7.03;4.23;;;5.50;99.90;;;;;;4991700;28;20692;-66
2021/03/04 07:57:17;;;;;;;4.20;3.90;;;5.60;99.90;;;;;;4979789;28;20720;-66
2021/03/04 07:59:56;;;;;;;3.93;3.53;;;5.60;99.90;;;;;;4999523;28;20699;-66
2021/03/04 08:02:34;;;;;;;5.30;3.77;;;5.50;99.90;;;;;;4981690;28;20656;-66
2021/03/04 08:05:30;;;;;;;4.50;3.60;;;5.60;99.90;;;;;;5001367;28;20615;-67
2021/03/04 08:07:58;;;;;;;5.33;3.90;;;5.60;99.90;;;;;;4979648;28;20652;-64
2021/03/04 08:10:24;;;;;;;4.00;3.47;;;5.60;99.90;;;;;;4978279;28;20702;-66
2021/03/04 08:12:51;;;;;;;6.33;3.53;;;5.60;99.90;;;;;;4998181;28;21161;-66
2021/03/04 08:15:21;;;;;;;4.40;4.00;;;5.80;99.90;;;;;;4981891;28;20632;-66
2021/03/04 08:17:47;;;;;;;4.47;3.57;;;5.80;99.90;;;;;;4976590;28;20621;-66
2021/03/04 08:20:16;;;;;;;5.53;3.60;;;5.80;99.90;;;;;;4984697;28;21269;-64
2021/03/04 08:22:50;;;;;;;4.33;3.93;;;5.80;99.90;;;;;;4980861;28;20655;-66
2021/03/04 08:25:38;;;;;;;4.00;3.43;;;5.90;99.90;;;;;;4972269;28;20640;-68
2021/03/04 08:28:04;;;;;;;10.43;3.97;;;5.90;99.90;;;;;;4994832;28;20694;-64
2021/03/04 08:30:48;;;;;;;4.97;3.40;;;5.80;99.90;;;;;;4973819;28;20683;-67
2021/03/04 08:33:14;;;;;;;5.70;3.90;;;5.80;99.90;;;;;;4970629;28;20630;-66
2021/03/04 08:35:45;;;;;;;3.70;3.23;;;5.80;99.90;;;;;;4977304;28;20624;-65
2021/03/04 08:38:13;;;;;;;5.30;3.97;;;5.80;99.90;;;;;;4979594;28;20283;-67
2021/03/04 08:41:04;;;;;;;4.50;3.90;;;5.90;99.90;;;;;;4975569;28;20711;-67
2021/03/04 08:43:29;;;;;;;4.60;4.00;;;5.90;99.90;;;;;;4973411;28;20682;-69
2021/03/04 08:45:56;;;;;;;6.40;4.10;;;5.90;99.90;;;;;;4994380;28;20670;-66
2021/03/04 08:48:22;;;;;;;8.63;3.70;;;6.00;99.90;;;;;;4970253;28;20409;-68
2021/03/04 08:50:52;;;;;;;4.67;3.90;;;6.10;99.90;;;;;;4971421;28;21534;-68
2021/03/04 08:53:24;;;;;;;5.47;3.93;;;6.00;99.90;;;;;;4997447;28;20654;-67
2021/03/04 08:55:52;;;;;;;8.70;4.77;;;6.10;99.90;;;;;;5002040;28;20640;-68
2021/03/04 08:58:19;;;;;;;7.93;3.90;;;6.00;99.90;;;;;;4983759;28;20999;-68
2021/03/04 09:00:54;;;;;;;6.87;3.70;;;6.00;99.90;;;;;;4991585;28;20670;-68
2021/03/04 09:03:20;;;;;;;5.27;3.30;;;6.10;99.90;;;;;;4985564;28;20655;-65
2021/03/04 09:05:46;;;;;;;4.30;3.57;;;6.30;99.90;;;;;;4996412;28;20738;-68
2021/03/04 09:08:14;;;;;;;5.23;3.50;;;6.30;99.90;;;;;;4979734;28;20635;-65
2021/03/04 09:10:47;;;;;;;5.07;3.70;;;6.20;99.90;;;;;;4997906;28;20667;-67
2021/03/04 09:13:24;;;;;;;3.70;3.40;;;6.30;99.90;;;;;;4999158;28;20632;-66
2021/03/04 09:15:55;;;;;;;6.33;3.40;;;6.40;99.90;;;;;;4994634;28;20620;-66
2021/03/04 09:18:23;;;;;;;5.53;3.90;;;6.40;99.90;;;;;;4980392;28;20636;-69
2021/03/04 09:20:50;;;;;;;4.33;3.37;;;6.40;99.90;;;;;;4973308;28;20671;-69
2021/03/04 09:25:56;;;;;;;5.63;3.50;;;6.40;99.90;;;;;;5527922;22;20703;-65
2021/03/04 09:28:25;;;;;;;4.47;3.60;;;6.50;99.90;;;;;;4985092;28;20791;-66
2021/03/04 09:30:51;;;;;;;5.83;4.53;;;6.50;99.90;;;;;;4980056;28;20614;-66
2021/03/04 09:33:21;;;;;;;6.17;3.80;;;6.40;99.90;;;;;;4999702;28;21134;-65
2021/03/04 09:35:56;;;;;;;8.57;4.40;;;6.50;99.90;;;;;;4978965;28;20682;-70
2021/03/04 09:40:50;;;;;;;6.87;4.07;;;6.60;99.90;;;;;;4946563;28;21281;-67
2021/03/04 09:43:18;;;;;;;7.93;4.13;;;6.60;99.90;;;;;;4968144;28;20626;-67
2021/03/04 09:45:45;;;;;;;6.80;4.50;;;6.60;99.90;;;;;;4960380;28;20206;-66
2021/03/04 09:48:12;;;;;;;8.77;4.37;;;6.70;99.90;;;;;;4966655;28;20693;-66
2021/03/04 09:50:38;;;;;;;6.13;4.40;;;6.80;99.90;;;;;;4970728;28;21068;-67
2021/03/04 09:53:07;;;;;;;4.53;4.07;;;6.80;99.90;;;;;;4977731;28;20661;-67
2021/03/04 09:55:45;;;;;;;7.30;4.07;;;6.80;99.90;;;;;;4984405;28;20634;-70
2021/03/04 09:58:16;;;;;;;4.30;3.70;;;6.80;99.90;;;;;;4974317;28;20701;-67
2021/03/04 10:00:54;;;;;;;6.50;4.33;;;6.90;99.90;;;;;;4983471;28;20657;-66
2021/03/04 10:03:19;;;;;;;7.73;4.20;;;6.80;99.90;;;;;;4958921;28;20696;-67
2021/03/04 10:05:50;;;;;;;6.27;3.57;;;6.80;99.90;;;;;;4971853;28;20630;-67
2021/03/04 10:08:17;;;;;;;6.77;5.13;;;6.90;99.90;;;;;;4972414;28;20251;-67
2021/03/04 10:10:44;;;;;;;7.53;4.20;;;6.80;99.90;;;;;;4975176;28;20674;-67
2021/03/04 10:13:10;;;;;;;6.57;3.90;;;6.80;99.90;;;;;;4966221;28;20637;-67
2021/03/04 10:15:41;;;;;;;5.10;3.57;;;6.90;99.90;;;;;;4974667;28;20696;-67
2021/03/04 10:18:09;;;;;;;6.00;3.83;;;6.90;99.90;;;;;;4977989;28;20218;-67
2021/03/04 10:20:36;;;;;;;8.00;4.17;;;6.90;99.90;;;;;;4959954;28;21069;-67
2021/03/04 10:23:02;;;;;;;5.87;3.70;;;6.90;99.90;;;;;;4972643;28;20779;-67
2021/03/04 10:25:27;;;;;;;5.43;3.37;;;7.00;99.90;;;;;;4951363;28;20703;-67
2021/03/04 10:27:55;;;;;;;8.20;3.67;;;6.90;99.90;;;;;;4959875;28;20637;-67
2021/03/04 10:30:21;;;;;;;8.47;3.03;;;7.00;99.90;;;;;;4966521;28;20218;-67
2021/03/04 10:32:49;;;;;;;7.33;3.53;;;7.00;99.90;;;;;;4959156;28;20614;-67
2021/03/04 10:35:18;;;;;;;6.50;3.60;;;6.90;99.90;;;;;;4972657;28;20629;-66
2021/03/04 10:37:46;;;;;;;8.20;3.67;;;7.00;99.90;;;;;;4962253;28;21161;-67
2021/03/04 10:40:14;;;;;;;6.40;3.50;;;7.00;99.90;;;;;;4972699;28;20664;-66
2021/03/04 10:42:43;;;;;;;4.33;3.40;;;7.00;99.90;;;;;;4969172;28;20716;-67
2021/03/04 10:45:11;;;;;;;8.30;3.90;;;7.00;99.90;;;;;;4967246;28;21282;-67
2021/03/04 10:47:39;;;;;;;5.17;3.60;;;7.00;99.90;;;;;;4976823;28;20637;-70
2021/03/04 10:50:10;;;;;;;7.00;3.50;;;7.00;99.90;;;;;;4974879;28;20723;-67
2021/03/04 10:52:35;;;;;;;6.43;3.93;;;7.00;99.90;;;;;;4960878;28;20615;-66
2021/03/04 10:55:01;;;;;;;6.57;3.97;;;7.10;99.90;;;;;;4976517;28;20622;-67
2021/03/04 10:57:30;;;;;;;6.38;4.28;;;7.10;99.90;;;;;;4954108;28;20739;-67
2021/03/04 10:59:55;;;;;;;6.33;4.00;;;7.20;99.90;;;;;;4979478;28;20690;-70
2021/03/04 11:02:21;;;;;;;8.87;4.33;;;7.30;99.90;;;;;;4985958;28;20618;-72
2021/03/04 11:04:54;;;;;;;5.83;3.50;;;7.40;99.90;;;;;;4967271;28;20685;-72
2021/03/04 11:07:20;;;;;;;6.50;4.10;;;7.20;99.90;;;;;;4973873;28;20261;-72
2021/03/04 11:09:45;;;;;;;7.07;4.27;;;7.10;99.90;;;;;;4976244;28;20674;-71
2021/03/04 11:12:13;;;;;;;6.13;4.00;;;7.20;99.90;;;;;;4966360;28;20630;-71
2021/03/04 11:14:41;;;;;;;4.77;3.43;;;7.20;99.90;;;;;;4988643;28;20249;-71
2021/03/04 11:17:07;;;;;;;6.93;4.67;;;7.20;99.90;;;;;;4983392;28;20606;-72
2021/03/04 11:19:32;;;;;;;7.03;3.40;;;7.20;99.90;;;;;;4963714;28;20650;-72
2021/03/04 11:21:58;;;;;;;4.30;3.50;;;7.30;99.90;;;;;;4972321;28;20191;-72
2021/03/04 11:24:24;;;;;;;6.17;3.80;;;7.30;99.90;;;;;;4969428;28;20218;-71
2021/03/04 11:26:49;;;;;;;6.47;4.07;;;7.30;99.90;;;;;;4982226;28;20682;-70
2021/03/04 11:29:15;;;;;;;7.50;4.20;;;7.30;99.90;;;;;;4968803;28;20621;-71
2021/03/04 11:31:40;;;;;;;5.17;4.63;;;7.30;99.90;;;;;;4961149;28;20217;-71
2021/03/04 11:34:14;;;;;;;6.13;4.00;;;7.30;99.90;;;;;;4979496;28;20293;-70
2021/03/04 11:36:41;;;;;;;9.60;4.43;;;7.30;99.90;;;;;;4964604;28;20187;-68
2021/03/04 11:39:07;;;;;;;8.03;5.10;;;7.30;99.90;;;;;;4959083;28;20672;-70
2021/03/04 11:41:33;;;;;;;10.30;5.10;;;7.50;99.90;;;;;;4977394;28;20618;-70
2021/03/04 11:44:01;;;;;;;10.07;6.80;;;7.60;99.90;;;;;;4965264;28;20340;-70
2021/03/04 11:46:29;;;;;;;9.77;6.10;;;7.70;99.90;;;;;;4977791;28;20258;-70
2021/03/04 11:48:57;;;;;;;9.20;5.13;;;7.80;99.90;;;;;;4975416;28;21255;-67
2021/03/04 11:51:25;;;;;;;7.07;4.70;;;7.90;99.90;;;;;;4968106;28;20730;-67
2021/03/04 11:53:53;;;;;;;6.53;4.00;;;7.90;99.90;;;;;;4984309;28;20654;-69
2021/03/04 11:56:19;;;;;;;6.23;4.27;;;8.00;99.90;;;;;;4965437;28;20627;-66
2021/03/04 11:58:44;;;;;;;8.00;4.40;;;8.10;99.90;;;;;;4975690;28;20669;-67
2021/03/04 12:01:12;;;;;;;7.23;3.60;;;8.10;99.90;;;;;;4963032;28;20206;-67
2021/03/04 12:03:40;;;;;;;5.53;4.03;;;8.20;99.90;;;;;;4966544;28;20253;-67
2021/03/04 12:06:05;;;;;;;8.00;4.20;;;8.20;99.90;;;;;;4965453;28;20631;-67
2021/03/04 12:08:33;;;;;;;5.83;4.27;;;8.30;99.90;;;;;;4982354;28;20692;-67
2021/03/04 12:11:08;;;;;;;5.40;3.93;;;8.40;99.90;;;;;;4966182;28;20202;-70
2021/03/04 12:13:34;;;;;;;6.10;4.03;;;8.40;99.90;;;;;;4981150;28;20640;-68
2021/03/04 12:16:06;;;;;;;5.27;3.80;;;8.50;99.90;;;;;;4974666;28;20629;-67
2021/03/04 12:18:39;;;;;;;6.17;3.67;;;8.60;99.90;;;;;;4989270;28;20577;-66
2021/03/04 12:21:05;;;;;;;7.10;4.00;;;8.70;99.90;;;;;;4968792;28;20637;-69
2021/03/04 12:23:32;;;;;;;8.20;5.20;;;8.70;99.90;;;;;;4974268;28;20634;-68
2021/03/04 12:25:57;;;;;;;10.63;4.93;;;8.80;99.90;;;;;;4980949;28;20645;-67
2021/03/04 12:28:25;;;;;;;7.43;5.17;;;8.90;99.90;;;;;;4978475;28;20622;-65
2021/03/04 12:30:51;;;;;;;6.17;4.30;;;8.90;99.90;;;;;;4966200;28;20214;-66
2021/03/04 12:33:16;;;;;;;6.37;5.00;;;8.90;99.90;;;;;;4974653;28;20676;-66
2021/03/04 12:35:42;;;;;;;7.00;4.90;;;9.00;99.90;;;;;;4979666;28;20684;-67
2021/03/04 12:38:08;;;;;;;7.97;5.87;;;9.00;99.90;;;;;;4962995;28;20741;-67
2021/03/04 12:40:36;;;;;;;7.80;5.47;;;9.00;99.90;;;;;;4980644;28;20230;-67
2021/03/04 12:43:04;;;;;;;6.23;4.83;;;9.00;99.90;;;;;;4958583;28;20634;-67
2021/03/04 12:45:36;;;;;;;7.87;5.03;;;9.10;99.90;;;;;;4974103;28;20631;-67
2021/03/04 12:48:03;;;;;;;7.33;6.07;;;9.10;99.90;;;;;;4963765;28;20702;-71
2021/03/04 12:50:28;;;;;;;10.10;6.50;;;9.10;99.90;;;;;;4965199;28;20694;-70
2021/03/04 12:52:54;;;;;;;8.20;6.27;;;9.00;99.90;;;;;;4972043;28;20622;-70
2021/03/04 13:02:25;;;;;;;7.23;6.10;;;8.80;99.90;;;;;;4933384;28;21186;-71
2021/03/04 13:15:29;;;;;;;7.27;5.93;;;8.40;99.90;;;;;;4944551;28;20594;-70
2021/03/04 13:17:55;;;;;;;12.17;6.90;;;8.30;99.90;;;;;;4937841;28;20621;-70
2021/03/04 13:20:23;;;;;;;10.63;7.07;;;8.30;99.90;;;;;;4961623;28;20650;-70
2021/03/04 13:22:50;;;;;;;7.93;7.20;;;8.30;99.90;;;;;;4965032;28;20266;-70
2021/03/04 13:25:21;;;;;;;10.93;7.37;;;8.30;99.90;;;;;;4955556;28;20713;-71
2021/03/04 13:27:52;;;;;;;10.87;7.33;;;8.30;99.90;;;;;;4980000;28;20986;-70
2021/03/04 13:30:21;;;;;;;12.30;7.00;;;8.40;99.90;;;;;;4968684;28;20685;-70
2021/03/04 13:32:47;;;;;;;7.10;6.17;;;8.40;99.90;;;;;;4968356;28;20606;-71
2021/03/04 13:35:13;;;;;;;7.87;6.13;;;8.40;99.90;;;;;;4961704;28;20987;-70
2021/03/04 13:37:41;;;;;;;7.63;5.87;;;8.50;99.90;;;;;;4963673;28;20214;-72
2021/03/04 13:40:07;;;;;;;11.27;6.50;;;8.50;99.90;;;;;;4988442;23;20256;-89
2021/03/04 13:45:03;;;;;;;9.90;6.30;;;8.40;99.90;;;;;;4924765;28;20686;-71